Hanjin Aqua — 3FIG — position and weather

sailwx.info

Track history (hours):
 
Tides and Currents Weather Stations Pressure Air Temp Water Temp Dewpoint Dewpoint Depression Visibility Wind Speed Wind Dir Waves Ship Positions

Hanjin Aqua

Last reported at 2017-Nov-12 10:05 UTC. Time now 2017-Nov-24 16:36 UTC.
Position N 23°08' W 115°39'.
Warning: this ship's position is 12 days out of date.

Length 249 m; draft 13.1 m.

Type: Ship (hazmat cat A). MMSI: 372817000.

Date/timePositionNaut miles runAvg speedWind from/ knotsBaromVisibWave heightAir tempDewpointWater temp
2017-Nov-12 10:05N 23°08' W 115°39'316.1
2017-Nov-12 09:54N 23°07' W 115°36'5516.0
2017-Nov-12 06:30N 22°47' W 114°41'816.0
2017-Nov-12 06:00N 22°44' W 114°33'816.1
2017-Nov-12 05:30N 22°41' W 114°25'816.3
2017-Nov-12 05:00N 22°38' W 114°17'816.2
2017-Nov-12 04:30N 22°35' W 114°09'916.4
2017-Nov-12 03:57N 22°31' W 113°59'8615.9
2017-Nov-11 22:34N 21°60' W 112°33'  
Track history (hours):
 
Tides and Currents Weather Stations Pressure Air Temp Water Temp Dewpoint Dewpoint Depression Visibility Wind Speed Wind Dir Waves Ship Positions

Hanjin Aqua

Last reported at 2017-Nov-12 10:05 UTC. Time now 2017-Nov-24 16:36 UTC.
Position N 23°08' W 115°39'.
Warning: this ship's position is 12 days out of date.

Length 249 m; draft 13.1 m.

Type: Ship (hazmat cat A). MMSI: 372817000.

Date/timePositionNaut miles runAvg speedWind from/ knotsBaromVisibWave heightAir tempDewpointWater temp
2017-Nov-12 10:05N 23°08' W 115°39'316.1
2017-Nov-12 09:54N 23°07' W 115°36'5516.0
2017-Nov-12 06:30N 22°47' W 114°41'816.0
2017-Nov-12 06:00N 22°44' W 114°33'816.1
2017-Nov-12 05:30N 22°41' W 114°25'816.3
2017-Nov-12 05:00N 22°38' W 114°17'816.2
2017-Nov-12 04:30N 22°35' W 114°09'916.4
2017-Nov-12 03:57N 22°31' W 113°59'8615.9
2017-Nov-11 22:34N 21°60' W 112°33'  

Dump ship's entire track history